Makah AFB, Washington
Current Conditions -  °F | °C
As of 11:13 AM on Sunday 21 Dec 2014 (Local Time) from KUIL Reporting Station
Haze Haze  
Wind Chill: 52°   Ceiling: 4800
Heat Index: 52°   Visibility: 4mi
Dew Point: 49°   Wind: 10mph
Humidity: 89%   Direction: 260°W
Pressure: 29.96"   Gusts: NA
Location:  48.3685°N, 124.623°W
Report Text: KUIL 211913Z AUTO 26009KT 4SM BR FEW020 BKN048 OVC060 11/09 A2996 RMK AO2 RAE05 P0000 T01110094 $
Loading
Personal Weather Stations






























Interactive Weather Map New forecast layout! Learn more

10-Day Weather Forecast

Advertisements
Track Severe Weather on mobile